Time;durP1;ratioP1;P1;durP2;ratioP2;P2;SDS_P1;SDS_P2;PMS_P1;PMS_P2;Temp;Humidity;BMP_temperature;BMP_pressure;BME280_temperature;BME280_humidity;BME280_pressure;Samples;Min_cycle;Max_cycle;Signal;HPM_P1;HPM_P2
2022/08/25 00:02:01;;;;;;;2.38;0.90;;;14.40;97.00;;;;;;4993553;28;20376;-75
2022/08/25 00:04:29;;;;;;;1.88;0.93;;;14.60;96.60;;;;;;4976191;28;20955;-75
2022/08/25 00:06:56;;;;;;;2.70;0.80;;;14.70;95.60;;;;;;4993390;28;20404;-75
2022/08/25 00:09:26;;;;;;;1.40;0.63;;;14.80;96.50;;;;;;4993550;28;20392;-75
2022/08/25 00:11:54;;;;;;;1.60;0.80;;;15.10;96.10;;;;;;4993584;28;20792;-75
2022/08/25 00:14:25;;;;;;;1.77;0.70;;;15.30;95.30;;;;;;4980662;28;20393;-75
2022/08/25 00:16:52;;;;;;;1.77;0.50;;;15.60;94.60;;;;;;4993045;28;20439;-76
2022/08/25 00:19:25;;;;;;;0.95;0.40;;;15.80;93.60;;;;;;4993078;28;20412;-75
2022/08/25 00:21:52;;;;;;;0.93;0.43;;;16.00;93.20;;;;;;4992946;28;20397;-76
2022/08/25 00:24:21;;;;;;;2.20;0.22;;;16.20;91.50;;;;;;4993399;28;20408;-77
2022/08/25 00:26:52;;;;;;;0.82;0.20;;;16.30;91.80;;;;;;4992564;28;21135;-77
2022/08/25 00:29:21;;;;;;;0.55;0.22;;;16.40;90.30;;;;;;4993630;28;20411;-77
2022/08/25 00:31:56;;;;;;;1.00;0.20;;;16.60;90.30;;;;;;4993214;28;20431;-77
2022/08/25 00:34:30;;;;;;;0.10;0.10;;;17.00;86.70;;;;;;4993231;28;20800;-77
2022/08/25 00:36:57;;;;;;;0.30;0.10;;;17.20;85.10;;;;;;4998700;28;20419;-77
2022/08/25 00:39:26;;;;;;;0.20;0.20;;;17.20;83.80;;;;;;4997909;28;20852;-76
2022/08/25 00:41:56;;;;;;;1.80;0.20;;;17.50;82.30;;;;;;4993677;28;20388;-76
2022/08/25 00:44:25;;;;;;;0.50;0.10;;;17.60;81.80;;;;;;4993598;28;20459;-76
2022/08/25 00:46:55;;;;;;;2.33;0.37;;;17.80;82.30;;;;;;4993211;28;20420;-76
2022/08/25 00:49:28;;;;;;;2.55;0.45;;;17.90;81.60;;;;;;4993223;28;20861;-77
2022/08/25 00:51:59;;;;;;;0.20;0.20;;;18.10;78.90;;;;;;4992933;28;20479;-77
2022/08/25 00:54:39;;;;;;;8.85;0.95;;;18.20;78.00;;;;;;4993007;28;20745;-77
2022/08/25 00:57:10;;;;;;;5.97;0.60;;;18.30;77.20;;;;;;4992687;28;20408;-78
2022/08/25 00:59:39;;;;;;;0.90;0.32;;;18.60;72.40;;;;;;4993083;28;20381;-78
2022/08/25 01:02:07;;;;;;;3.60;0.68;;;18.40;71.40;;;;;;4992830;28;20377;-77
2022/08/25 01:04:34;;;;;;;5.80;0.60;;;18.50;73.10;;;;;;4992318;28;20428;-77
2022/08/25 01:07:02;;;;;;;10.13;1.00;;;18.50;71.80;;;;;;4992588;28;20428;-77
2022/08/25 01:09:31;;;;;;;10.07;1.08;;;18.50;70.40;;;;;;4992842;28;20377;-77
2022/08/25 01:11:59;;;;;;;10.77;0.70;;;18.50;70.40;;;;;;4992367;28;20397;-78
2022/08/25 01:14:30;;;;;;;6.75;0.63;;;18.40;70.20;;;;;;4978956;28;20460;-77
2022/08/25 01:16:58;;;;;;;1.77;0.30;;;18.40;70.40;;;;;;4958243;28;20405;-78
2022/08/25 01:19:28;;;;;;;1.20;0.20;;;18.00;72.10;;;;;;4992702;28;20383;-78
2022/08/25 01:21:56;;;;;;;2.53;0.60;;;18.10;72.00;;;;;;4992662;28;20377;-78
2022/08/25 01:24:37;;;;;;;1.00;0.43;;;18.20;72.90;;;;;;4992245;28;20380;-78
2022/08/25 01:27:06;;;;;;;1.08;0.40;;;18.30;71.50;;;;;;4993015;28;20377;-77
2022/08/25 01:29:34;;;;;;;5.10;0.73;;;18.00;71.70;;;;;;4992338;28;20427;-78
2022/08/25 01:32:07;;;;;;;9.80;1.00;;;18.20;72.70;;;;;;4992695;28;20388;-78
2022/08/25 01:34:37;;;;;;;5.80;0.70;;;18.10;71.20;;;;;;4995152;28;20377;-77
2022/08/25 01:37:05;;;;;;;1.60;0.40;;;18.10;71.90;;;;;;5004049;28;20416;-77
2022/08/25 01:39:35;;;;;;;2.28;0.40;;;18.00;71.00;;;;;;5008339;28;20938;-77
2022/08/25 01:42:18;;;;;;;0.40;0.10;;;17.90;71.40;;;;;;4997456;28;20385;-76
2022/08/25 01:44:46;;;;;;;6.15;0.77;;;17.90;71.00;;;;;;4992524;28;20368;-76
2022/08/25 01:47:14;;;;;;;3.47;0.32;;;17.90;72.30;;;;;;4992122;28;20433;-77
2022/08/25 01:49:42;;;;;;;13.82;0.60;;;17.90;71.80;;;;;;4992090;28;20388;-77
2022/08/25 01:52:16;;;;;;;2.97;0.50;;;18.00;72.30;;;;;;4991976;28;20393;-78
2022/08/25 01:54:44;;;;;;;3.90;0.47;;;18.10;72.00;;;;;;4974096;28;20884;-78
2022/08/25 01:57:11;;;;;;;4.63;0.60;;;18.20;73.20;;;;;;4992020;28;20499;-78
2022/08/25 01:59:38;;;;;;;7.70;0.90;;;18.40;72.50;;;;;;4991883;28;20427;-78
2022/08/25 02:02:05;;;;;;;5.22;0.60;;;18.60;71.20;;;;;;4991638;28;20861;-78
2022/08/25 02:04:33;;;;;;;0.35;0.15;;;18.80;71.20;;;;;;4991445;28;20387;-78
2022/08/25 02:07:03;;;;;;;3.55;0.50;;;18.90;70.10;;;;;;4991534;28;20385;-77
2022/08/25 02:09:30;;;;;;;6.37;0.60;;;18.90;70.20;;;;;;4991421;28;20412;-79
2022/08/25 02:11:58;;;;;;;2.80;0.30;;;18.80;70.40;;;;;;4991628;28;20797;-77
2022/08/25 02:14:25;;;;;;;8.02;0.80;;;19.20;69.90;;;;;;4977881;28;20381;-78
2022/08/25 02:16:53;;;;;;;2.17;0.35;;;19.60;69.80;;;;;;4974032;28;20437;-79
2022/08/25 02:19:23;;;;;;;3.35;0.40;;;19.70;66.60;;;;;;4991540;28;20472;-78
2022/08/25 02:21:50;;;;;;;3.42;0.40;;;19.60;66.50;;;;;;4991298;28;20417;-79
2022/08/25 02:24:18;;;;;;;1.13;0.20;;;19.60;66.80;;;;;;4973886;28;20412;-78
2022/08/25 02:26:45;;;;;;;1.90;0.30;;;19.40;65.90;;;;;;4991346;28;20392;-77
2022/08/25 02:29:12;;;;;;;1.63;0.10;;;19.20;67.50;;;;;;4991494;28;20384;-78
2022/08/25 02:31:40;;;;;;;3.03;0.30;;;19.10;64.40;;;;;;4977953;28;20412;-79
2022/08/25 02:34:08;;;;;;;1.77;0.28;;;19.10;65.30;;;;;;4991387;28;20379;-79
2022/08/25 02:36:37;;;;;;;1.02;0.20;;;19.40;64.50;;;;;;4991086;28;20408;-78
2022/08/25 02:39:05;;;;;;;3.80;0.40;;;19.60;64.30;;;;;;4991414;28;20880;-78
2022/08/25 02:41:33;;;;;;;0.90;0.30;;;20.20;64.60;;;;;;4990741;28;20427;-79
2022/08/25 02:44:02;;;;;;;1.80;0.43;;;20.80;61.50;;;;;;4991293;28;20902;-78
2022/08/25 02:46:29;;;;;;;3.97;0.30;;;21.30;62.90;;;;;;4991051;28;20460;-79
2022/08/25 02:48:57;;;;;;;2.92;0.35;;;21.70;60.20;;;;;;4991251;28;20382;-79
2022/08/25 02:51:28;;;;;;;2.15;0.38;;;21.90;57.20;;;;;;4990930;28;20395;-79
2022/08/25 02:53:57;;;;;;;2.28;0.30;;;21.70;57.40;;;;;;4991035;28;20388;-78
2022/08/25 02:56:25;;;;;;;1.40;0.23;;;21.40;58.20;;;;;;4991193;28;20481;-78
2022/08/25 02:58:52;;;;;;;1.17;0.20;;;21.50;58.50;;;;;;4988112;28;20470;-79
2022/08/25 03:01:20;;;;;;;3.47;0.50;;;21.40;58.00;;;;;;4990849;28;20389;-79
2022/08/25 03:03:51;;;;;;;0.88;0.50;;;21.00;59.30;;;;;;4990951;28;20472;-79
2022/08/25 03:06:22;;;;;;;0.15;0.10;;;21.40;60.80;;;;;;4994866;28;20396;-80
2022/08/25 03:08:49;;;;;;;1.50;0.20;;;21.80;59.90;;;;;;4994929;28;20385;-79
2022/08/25 03:11:17;;;;;;;0.88;0.10;;;22.20;58.60;;;;;;4994915;28;20420;-79
2022/08/25 03:13:44;;;;;;;0.50;0.20;;;22.70;56.70;;;;;;4982786;28;20391;-79
2022/08/25 03:16:12;;;;;;;0.13;0.10;;;22.40;55.60;;;;;;4993475;28;20435;-78
2022/08/25 03:18:41;;;;;;;0.30;0.17;;;21.40;57.60;;;;;;4995266;28;20768;-79
2022/08/25 03:21:10;;;;;;;0.67;0.10;;;20.90;59.40;;;;;;4994279;28;20436;-79
2022/08/25 03:23:37;;;;;;;1.23;0.10;;;20.70;59.60;;;;;;4994995;28;20380;-79
2022/08/25 03:29:04;;;;;;;0.40;0.10;;;20.20;60.40;;;;;;4934733;29;20401;-79
2022/08/25 03:31:32;;;;;;;0.53;0.10;;;19.60;61.80;;;;;;4934650;29;20382;-79
2022/08/25 03:34:01;;;;;;;1.70;0.20;;;19.40;63.10;;;;;;4938931;29;20397;-79
2022/08/25 03:36:28;;;;;;;0.88;0.10;;;19.40;64.40;;;;;;4939445;29;20418;-79
2022/08/25 03:38:56;;;;;;;0.17;0.10;;;19.30;64.30;;;;;;4936402;29;20975;-78
2022/08/25 03:41:31;;;;;;;0.50;0.10;;;19.20;64.30;;;;;;4934478;29;20894;-78
2022/08/25 03:43:59;;;;;;;0.80;0.20;;;19.00;65.10;;;;;;4916963;29;21036;-78
2022/08/25 03:46:30;;;;;;;9.13;0.90;;;19.00;66.10;;;;;;4912984;29;20395;-78
2022/08/25 03:48:59;;;;;;;6.05;0.65;;;19.30;64.30;;;;;;4934370;29;20388;-78
2022/08/25 03:51:33;;;;;;;5.67;0.70;;;19.40;63.50;;;;;;4934052;29;20473;-78
2022/08/25 03:54:01;;;;;;;5.05;0.70;;;19.50;63.00;;;;;;4934014;29;20397;-77
2022/08/25 03:56:29;;;;;;;7.65;0.70;;;19.70;61.60;;;;;;4933985;29;20902;-77
2022/08/25 03:58:57;;;;;;;3.45;0.40;;;19.80;62.00;;;;;;4933911;29;20541;-78
2022/08/25 04:01:25;;;;;;;3.22;0.47;;;19.80;61.10;;;;;;4934415;29;20481;-78
2022/08/25 04:03:52;;;;;;;2.92;0.50;;;20.20;60.80;;;;;;4934070;29;20494;-79
2022/08/25 04:06:20;;;;;;;0.60;0.30;;;20.50;59.90;;;;;;4987139;28;20754;-78
2022/08/25 04:08:47;;;;;;;0.90;0.30;;;20.50;59.70;;;;;;4993704;28;20463;-78
2022/08/25 04:11:18;;;;;;;0.70;0.30;;;20.50;58.60;;;;;;4993939;28;20869;-78
2022/08/25 04:13:46;;;;;;;2.10;0.40;;;20.50;59.60;;;;;;4985894;28;20379;-79
2022/08/25 04:16:21;;;;;;;0.98;0.20;;;20.40;59.90;;;;;;4998051;28;20408;-79
2022/08/25 04:18:50;;;;;;;4.45;0.40;;;20.40;61.00;;;;;;4996806;28;20404;-79
2022/08/25 04:21:19;;;;;;;1.52;0.50;;;20.50;60.30;;;;;;4976078;28;20898;-79
2022/08/25 04:23:47;;;;;;;4.20;0.60;;;20.40;60.70;;;;;;4993907;28;20728;-79
2022/08/25 04:26:18;;;;;;;13.90;1.70;;;20.10;61.00;;;;;;4993348;28;20439;-79
2022/08/25 04:28:46;;;;;;;2.22;0.40;;;19.70;63.10;;;;;;4993405;28;20376;-79
2022/08/25 04:31:15;;;;;;;0.60;0.30;;;19.40;62.30;;;;;;4993106;28;20377;-79
2022/08/25 04:33:43;;;;;;;1.15;0.22;;;19.00;62.10;;;;;;4975993;28;20927;-80
2022/08/25 04:36:11;;;;;;;8.00;0.60;;;18.70;63.10;;;;;;4993245;28;20400;-79
2022/08/25 04:38:39;;;;;;;4.57;0.50;;;18.50;63.90;;;;;;4993294;28;20442;-79
2022/08/25 04:41:08;;;;;;;1.10;0.50;;;18.40;64.90;;;;;;4993016;28;20868;-79
2022/08/25 04:43:37;;;;;;;2.42;0.30;;;18.30;66.20;;;;;;4993656;28;20388;-79
2022/08/25 04:46:17;;;;;;;1.35;0.22;;;18.10;66.00;;;;;;4993195;28;20948;-80
2022/08/25 04:48:44;;;;;;;2.30;0.38;;;18.10;65.70;;;;;;4993437;28;20385;-80
2022/08/25 04:51:15;;;;;;;1.00;0.30;;;18.10;65.30;;;;;;4996455;28;20380;-80
2022/08/25 04:53:43;;;;;;;1.63;0.20;;;18.10;65.20;;;;;;4993799;28;20462;-80
2022/08/25 04:56:14;;;;;;;1.00;0.40;;;18.00;65.00;;;;;;4992378;28;20449;-78
2022/08/25 04:58:41;;;;;;;0.65;0.40;;;18.10;65.90;;;;;;4996979;28;20373;-80
2022/08/25 05:01:14;;;;;;;1.80;0.40;;;18.20;66.70;;;;;;5000723;28;20445;-78
2022/08/25 05:03:42;;;;;;;4.75;0.70;;;18.10;67.60;;;;;;4993927;28;20377;-80
2022/08/25 05:06:10;;;;;;;2.92;0.52;;;17.90;69.00;;;;;;4997125;28;20396;-80
2022/08/25 05:08:38;;;;;;;1.60;0.80;;;17.80;68.80;;;;;;4997039;28;20387;-79
2022/08/25 05:11:11;;;;;;;2.35;1.10;;;17.70;69.50;;;;;;4996913;28;20381;-79
2022/08/25 05:13:41;;;;;;;3.83;1.60;;;17.60;69.60;;;;;;4996246;28;20431;-74
2022/08/25 05:16:08;;;;;;;2.80;1.17;;;17.60;70.50;;;;;;4991830;28;20404;-75
2022/08/25 05:18:36;;;;;;;3.15;1.10;;;17.70;70.50;;;;;;4993278;28;20962;-76
2022/08/25 05:21:06;;;;;;;1.10;0.90;;;17.70;71.30;;;;;;4994446;28;20895;-76
2022/08/25 05:23:34;;;;;;;2.30;1.00;;;17.70;70.90;;;;;;4992650;28;20377;-79
2022/08/25 05:26:21;;;;;;;2.38;1.05;;;17.80;70.90;;;;;;4992289;28;20521;-75
2022/08/25 05:28:52;;;;;;;1.30;0.80;;;17.80;70.20;;;;;;4983247;28;20404;-76
2022/08/25 05:31:21;;;;;;;4.07;1.00;;;17.80;69.50;;;;;;4994545;28;20377;-77
2022/08/25 05:33:49;;;;;;;1.73;0.93;;;17.80;69.30;;;;;;4992250;28;20392;-76
2022/08/25 05:36:18;;;;;;;1.37;0.70;;;17.70;69.80;;;;;;4989870;28;20453;-77
2022/08/25 05:38:46;;;;;;;2.00;0.90;;;17.70;69.60;;;;;;4994911;28;20393;-79
2022/08/25 05:41:16;;;;;;;2.13;0.93;;;17.80;70.20;;;;;;4995406;28;20405;-75
2022/08/25 05:43:45;;;;;;;4.10;0.70;;;17.90;69.70;;;;;;4993316;28;20734;-78
2022/08/25 05:46:14;;;;;;;1.60;0.70;;;18.00;69.50;;;;;;4992771;28;20451;-77
2022/08/25 05:48:41;;;;;;;1.08;0.60;;;18.10;69.80;;;;;;4988798;28;20500;-73
2022/08/25 05:51:10;;;;;;;3.15;0.60;;;18.20;69.30;;;;;;4991256;28;20385;-73
2022/08/25 05:53:40;;;;;;;1.83;0.80;;;18.30;69.60;;;;;;4990358;28;20439;-76
2022/08/25 05:56:08;;;;;;;1.48;0.70;;;18.50;69.20;;;;;;4992911;28;20988;-75
2022/08/25 05:58:37;;;;;;;1.35;0.70;;;18.70;68.00;;;;;;4991826;28;20401;-76
2022/08/25 06:03:54;;;;;;;1.83;0.80;;;18.60;67.20;;;;;;4904099;29;20533;-77
2022/08/25 06:06:25;;;;;;;1.77;0.73;;;18.50;68.30;;;;;;4912531;29;20419;-77
2022/08/25 06:08:52;;;;;;;2.63;0.60;;;18.30;68.20;;;;;;4917942;29;20800;-73
2022/08/25 06:11:19;;;;;;;2.90;1.10;;;18.10;68.50;;;;;;4916814;29;20401;-72
2022/08/25 06:13:46;;;;;;;4.37;0.83;;;18.00;68.80;;;;;;4914484;29;20415;-73
2022/08/25 06:16:13;;;;;;;2.22;0.80;;;17.90;69.60;;;;;;4921097;29;20541;-78
2022/08/25 06:18:40;;;;;;;1.45;0.90;;;17.80;69.60;;;;;;4915418;29;20497;-75
2022/08/25 06:21:16;;;;;;;1.80;0.80;;;17.70;69.80;;;;;;4912114;29;20445;-74
2022/08/25 06:23:43;;;;;;;2.70;0.90;;;17.60;69.90;;;;;;4905983;29;20435;-76
2022/08/25 06:26:11;;;;;;;1.75;0.70;;;17.40;70.50;;;;;;4914883;29;20931;-75
2022/08/25 06:28:38;;;;;;;6.17;0.87;;;17.30;71.20;;;;;;4921919;29;20504;-78
2022/08/25 06:31:08;;;;;;;1.23;0.60;;;17.20;71.90;;;;;;4914315;29;20407;-76
2022/08/25 06:33:35;;;;;;;1.27;0.63;;;17.20;72.90;;;;;;4910388;29;21009;-73
2022/08/25 06:36:02;;;;;;;3.23;0.70;;;17.10;74.10;;;;;;4903189;29;20415;-74
2022/08/25 06:38:32;;;;;;;1.73;0.70;;;17.00;75.10;;;;;;4918623;29;20442;-77
2022/08/25 06:41:02;;;;;;;3.03;0.65;;;16.90;75.90;;;;;;4933538;28;20389;-75
2022/08/25 06:43:31;;;;;;;1.17;0.63;;;16.80;76.40;;;;;;4991685;28;20483;-81
2022/08/25 06:46:09;;;;;;;0.90;0.50;;;16.70;76.70;;;;;;4990994;28;20479;-75
2022/08/25 06:48:37;;;;;;;2.60;0.60;;;16.60;77.00;;;;;;4993567;28;20397;-78
2022/08/25 06:51:09;;;;;;;1.30;0.63;;;16.60;77.40;;;;;;4999491;28;20976;-74
2022/08/25 06:53:36;;;;;;;3.35;0.60;;;16.60;77.80;;;;;;4977228;28;20966;-78
2022/08/25 06:56:04;;;;;;;3.50;0.80;;;16.50;78.80;;;;;;4993732;28;20776;-73
2022/08/25 06:58:32;;;;;;;2.58;0.90;;;16.50;80.10;;;;;;4991206;28;21012;-74
2022/08/25 07:01:22;;;;;;;1.85;0.80;;;16.40;81.30;;;;;;4992371;28;20435;-74
2022/08/25 07:03:50;;;;;;;6.30;0.90;;;16.30;82.50;;;;;;4992485;28;20429;-81
2022/08/25 07:06:18;;;;;;;4.50;1.10;;;16.20;83.60;;;;;;4993022;28;20393;-77
2022/08/25 07:08:46;;;;;;;2.60;1.10;;;16.10;84.90;;;;;;4992490;28;20443;-77
2022/08/25 07:11:15;;;;;;;1.58;0.70;;;16.00;85.30;;;;;;4991445;28;20400;-74
2022/08/25 07:13:43;;;;;;;2.00;0.60;;;16.00;85.50;;;;;;4992360;28;20400;-73
2022/08/25 07:16:10;;;;;;;2.92;0.70;;;15.90;85.70;;;;;;4992268;28;20428;-77
2022/08/25 07:18:38;;;;;;;2.95;0.75;;;15.90;85.70;;;;;;4995278;28;20373;-79
2022/08/25 07:21:05;;;;;;;3.40;1.00;;;15.80;87.10;;;;;;4995486;28;20389;-80
2022/08/25 07:23:33;;;;;;;2.20;1.00;;;15.80;89.20;;;;;;4994656;28;20435;-77
2022/08/25 07:26:17;;;;;;;1.43;0.90;;;15.80;90.50;;;;;;4995849;28;20388;-79
2022/08/25 07:28:45;;;;;;;3.00;1.10;;;15.80;90.60;;;;;;4992184;28;20904;-80
2022/08/25 07:31:12;;;;;;;4.10;1.10;;;15.70;90.80;;;;;;4995579;28;20472;-78
2022/08/25 07:35:13;;;;;;;2.60;0.85;;;15.60;91.20;;;;;;4994295;28;20820;-76
2022/08/25 07:36:26;;;;;;;4.30;1.00;;;15.60;91.60;;;;;;4994103;28;20471;-82
2022/08/25 07:38:54;;;;;;;2.23;1.10;;;15.60;92.10;;;;;;4977162;28;20377;-79
2022/08/25 07:41:21;;;;;;;1.40;1.05;;;15.50;92.50;;;;;;4990464;28;20393;-76
2022/08/25 07:43:48;;;;;;;2.72;1.10;;;15.50;93.30;;;;;;4988496;28;20497;-77
2022/08/25 07:46:16;;;;;;;2.60;1.00;;;15.40;93.70;;;;;;4995852;28;20441;-78
2022/08/25 07:48:43;;;;;;;2.88;1.20;;;15.30;94.30;;;;;;4993307;28;20385;-74
2022/08/25 07:51:16;;;;;;;1.90;1.20;;;15.30;95.00;;;;;;4992464;28;20385;-73
2022/08/25 07:53:43;;;;;;;3.22;1.70;;;15.10;95.60;;;;;;4996720;28;20385;-75
2022/08/25 07:56:15;;;;;;;4.32;1.60;;;15.10;96.10;;;;;;5001661;28;20396;-77
2022/08/25 07:58:43;;;;;;;5.13;2.10;;;14.90;96.10;;;;;;4994404;28;20487;-75
2022/08/25 08:01:19;;;;;;;3.83;1.98;;;14.80;97.10;;;;;;4994508;28;20392;-77
2022/08/25 08:03:46;;;;;;;4.20;1.60;;;14.70;97.70;;;;;;4994869;28;20563;-77
2022/08/25 08:06:16;;;;;;;2.90;1.10;;;14.60;98.20;;;;;;4994849;28;20427;-75
2022/08/25 08:08:47;;;;;;;2.50;1.27;;;14.40;98.50;;;;;;4976711;28;20400;-75
2022/08/25 08:11:29;;;;;;;2.60;1.10;;;14.30;99.00;;;;;;4986139;28;20411;-76
2022/08/25 08:13:57;;;;;;;3.78;1.30;;;14.20;99.60;;;;;;4980042;28;20583;-76
2022/08/25 08:16:27;;;;;;;2.80;1.17;;;14.10;99.90;;;;;;4983710;28;20416;-76
2022/08/25 08:18:54;;;;;;;3.57;1.17;;;13.90;99.90;;;;;;4992695;28;20895;-77
2022/08/25 08:21:29;;;;;;;2.80;1.17;;;13.80;99.90;;;;;;4993350;28;20392;-76
2022/08/25 08:23:58;;;;;;;4.33;1.90;;;13.70;99.90;;;;;;4993283;28;20439;-76
2022/08/25 08:26:27;;;;;;;4.40;2.60;;;13.60;99.90;;;;;;4993118;28;20468;-76
2022/08/25 08:28:54;;;;;;;7.53;4.65;;;13.60;99.90;;;;;;4993479;28;20451;-77
2022/08/25 08:31:25;;;;;;;4.65;1.88;;;13.40;99.90;;;;;;4993830;28;20385;-77
2022/08/25 08:33:55;;;;;;;6.05;2.40;;;13.30;99.90;;;;;;4991068;28;20404;-78
2022/08/25 08:36:24;;;;;;;3.38;1.73;;;13.20;99.90;;;;;;4974996;28;20408;-78
2022/08/25 08:38:52;;;;;;;6.20;1.92;;;13.20;99.90;;;;;;4995193;28;20417;-77
2022/08/25 08:44:45;;;;;;;5.80;2.13;;;13.00;99.90;;;;;;4920856;29;20448;-75
2022/08/25 08:47:12;;;;;;;9.40;3.40;;;13.00;99.90;;;;;;4924837;29;20492;-76
2022/08/25 08:50:15;;;;;;;4.88;2.63;;;13.00;99.90;;;;;;4933310;29;20410;-78
2022/08/25 08:53:01;;;;;;;4.80;2.17;;;13.20;99.90;;;;;;4935857;29;20393;-77
2022/08/25 08:55:35;;;;;;;6.43;2.20;;;13.30;99.90;;;;;;4936455;29;20981;-77
2022/08/25 08:58:08;;;;;;;5.07;2.40;;;13.40;99.90;;;;;;4926055;29;20512;-78
2022/08/25 09:00:42;;;;;;;4.93;2.72;;;13.40;99.90;;;;;;4932914;29;20390;-76
2022/08/25 09:03:33;;;;;;;4.35;2.97;;;13.50;99.90;;;;;;4932417;29;20481;-76
2022/08/25 09:06:05;;;;;;;3.87;2.63;;;13.50;99.90;;;;;;4927476;29;20406;-77
2022/08/25 09:08:33;;;;;;;4.35;2.38;;;13.60;99.90;;;;;;4934038;29;20390;-75
2022/08/25 09:11:42;;;;;;;4.60;2.25;;;13.50;99.90;;;;;;4935516;29;20538;-82
2022/08/25 09:14:32;;;;;;;3.72;1.80;;;13.50;99.90;;;;;;4849404;29;20468;-80
2022/08/25 09:17:04;;;;;;;4.93;1.70;;;13.40;99.90;;;;;;4857844;29;20663;-79
2022/08/25 09:20:05;;;;;;;3.80;1.77;;;13.40;99.90;;;;;;4856081;29;20408;-76
2022/08/25 09:22:55;;;;;;;8.40;2.00;;;13.40;99.90;;;;;;4893915;29;20397;-77
2022/08/25 09:25:51;;;;;;;5.30;2.30;;;13.30;99.90;;;;;;4896402;29;20401;-76
2022/08/25 09:28:30;;;;;;;4.22;1.70;;;13.10;99.90;;;;;;4894405;29;20485;-77
2022/08/25 09:31:04;;;;;;;4.53;1.97;;;12.90;99.90;;;;;;4893945;29;20519;-76
2022/08/25 09:33:33;;;;;;;5.00;2.10;;;12.70;99.90;;;;;;4894461;29;20406;-77
2022/08/25 09:36:00;;;;;;;7.80;2.50;;;12.60;99.90;;;;;;4894070;29;20445;-77
2022/08/25 09:38:31;;;;;;;14.32;2.67;;;12.50;99.90;;;;;;4893710;29;20425;-77
2022/08/25 09:41:00;;;;;;;7.33;2.50;;;12.40;99.90;;;;;;4894495;29;20480;-77
2022/08/25 09:43:30;;;;;;;10.00;2.25;;;12.40;99.90;;;;;;4893981;29;20407;-77
2022/08/25 09:46:14;;;;;;;10.27;2.60;;;12.40;99.90;;;;;;4893864;29;20893;-76
2022/08/25 09:48:50;;;;;;;8.38;1.95;;;12.50;99.90;;;;;;4894241;29;20429;-76
2022/08/25 09:51:32;;;;;;;8.15;1.63;;;12.50;99.90;;;;;;4961271;28;20393;-77
2022/08/25 09:54:01;;;;;;;7.65;1.50;;;12.50;99.90;;;;;;4988581;28;20411;-76
2022/08/25 09:56:31;;;;;;;10.85;1.95;;;12.50;99.90;;;;;;4991822;28;20783;-77
2022/08/25 09:59:18;;;;;;;10.00;1.75;;;12.60;99.90;;;;;;4991663;28;20369;-77
2022/08/25 10:02:01;;;;;;;10.27;1.60;;;12.70;99.90;;;;;;4992440;28;20749;-76
2022/08/25 10:04:33;;;;;;;13.75;2.03;;;12.90;99.90;;;;;;4993339;28;20420;-75
2022/08/25 10:07:04;;;;;;;14.02;2.05;;;13.10;99.90;;;;;;4995584;28;20443;-76
2022/08/25 10:09:39;;;;;;;8.63;1.90;;;13.20;99.90;;;;;;4991721;28;20734;-76
2022/08/25 10:12:23;;;;;;;5.95;1.90;;;13.20;99.90;;;;;;4994263;28;20396;-76
2022/08/25 10:14:51;;;;;;;12.13;2.88;;;13.20;99.90;;;;;;4980239;28;20468;-75
2022/08/25 10:17:32;;;;;;;8.45;3.03;;;13.10;99.90;;;;;;4993188;28;20900;-76
2022/08/25 10:20:11;;;;;;;6.15;2.63;;;13.00;99.90;;;;;;4981433;28;20904;-77
2022/08/25 10:22:39;;;;;;;6.35;2.28;;;13.00;99.90;;;;;;4992483;28;20380;-75
2022/08/25 10:25:10;;;;;;;8.40;2.40;;;13.00;99.90;;;;;;4992384;28;20394;-77
2022/08/25 10:27:58;;;;;;;9.05;2.80;;;13.00;99.90;;;;;;4991883;28;20392;-77
2022/08/25 10:30:46;;;;;;;5.78;2.30;;;13.00;99.90;;;;;;4972931;28;20443;-75
2022/08/25 10:33:39;;;;;;;10.00;3.00;;;13.00;99.90;;;;;;4991289;28;20377;-76
2022/08/25 10:36:36;;;;;;;10.40;3.90;;;13.00;99.90;;;;;;4992230;28;20424;-76
2022/08/25 10:39:04;;;;;;;6.88;3.40;;;13.00;99.90;;;;;;4975281;28;20974;-75
2022/08/25 10:41:59;;;;;;;10.40;3.67;;;13.00;99.90;;;;;;4991378;28;20385;-76
2022/08/25 10:47:56;;;;;;;9.37;3.67;;;13.10;99.90;;;;;;4991730;28;20369;-76
2022/08/25 10:51:07;;;;;;;7.97;3.80;;;13.00;99.90;;;;;;4957032;28;20420;-75
2022/08/25 10:53:55;;;;;;;8.38;3.70;;;12.90;99.90;;;;;;4988579;28;20471;-77
2022/08/25 10:56:31;;;;;;;5.53;3.60;;;13.00;99.90;;;;;;4991387;28;20431;-77
2022/08/25 10:59:14;;;;;;;4.78;2.97;;;12.90;99.90;;;;;;4990898;28;20385;-76
2022/08/25 11:02:23;;;;;;;5.47;2.80;;;12.80;99.90;;;;;;4960162;28;21186;-77
2022/08/25 11:05:04;;;;;;;4.53;2.70;;;12.70;99.90;;;;;;4988317;28;20405;-76
2022/08/25 11:07:39;;;;;;;4.50;2.83;;;12.60;99.90;;;;;;4991546;28;20400;-76
2022/08/25 11:10:21;;;;;;;7.00;2.90;;;12.60;99.90;;;;;;4990890;28;20393;-76
2022/08/25 11:12:58;;;;;;;4.13;2.72;;;12.50;99.90;;;;;;4986019;28;20413;-76
2022/08/25 11:15:42;;;;;;;4.50;2.40;;;12.50;99.90;;;;;;4983197;28;20447;-76
2022/08/25 11:18:13;;;;;;;5.53;2.25;;;12.50;99.90;;;;;;4979192;28;20432;-77
2022/08/25 11:21:19;;;;;;;4.38;2.30;;;12.50;99.90;;;;;;4990816;28;20456;-77
2022/08/25 11:24:08;;;;;;;4.65;2.40;;;12.40;99.90;;;;;;4982077;28;20377;-75
2022/08/25 11:26:41;;;;;;;7.45;2.67;;;12.30;99.90;;;;;;4992749;28;20478;-77
2022/08/25 11:29:13;;;;;;;3.10;2.40;;;12.30;99.90;;;;;;4994875;28;20368;-78
2022/08/25 11:31:45;;;;;;;3.83;2.80;;;12.20;99.90;;;;;;4994133;28;20392;-73
2022/08/25 11:34:14;;;;;;;3.78;2.58;;;12.00;99.90;;;;;;4994659;28;20726;-76
2022/08/25 11:36:51;;;;;;;3.63;2.45;;;11.90;99.90;;;;;;4991671;28;20769;-76
2022/08/25 11:39:22;;;;;;;4.25;3.00;;;11.80;99.90;;;;;;4994398;28;20447;-75
2022/08/25 11:42:04;;;;;;;4.25;3.08;;;11.70;99.90;;;;;;4994005;28;20411;-76
2022/08/25 11:44:46;;;;;;;6.88;3.65;;;11.70;99.90;;;;;;4994495;28;20392;-75
2022/08/25 11:47:46;;;;;;;4.00;2.60;;;11.60;99.90;;;;;;4992727;28;20464;-75
2022/08/25 11:50:35;;;;;;;4.43;2.53;;;11.50;99.90;;;;;;4994233;28;20388;-75
2022/08/25 11:53:31;;;;;;;3.40;2.40;;;11.50;99.90;;;;;;4994393;28;20373;-74
2022/08/25 11:56:08;;;;;;;4.18;2.53;;;11.40;99.90;;;;;;4984159;28;20388;-77
2022/08/25 11:58:43;;;;;;;3.47;2.38;;;11.30;99.90;;;;;;4993809;28;20396;-75
2022/08/25 12:01:39;;;;;;;3.92;2.53;;;11.20;99.90;;;;;;4994029;28;20380;-77
2022/08/25 12:04:14;;;;;;;3.33;2.27;;;11.20;99.90;;;;;;4952517;29;20651;-75
2022/08/25 12:07:00;;;;;;;4.00;2.58;;;11.20;99.90;;;;;;4952931;29;20400;-76
2022/08/25 12:09:27;;;;;;;6.50;4.32;;;11.30;99.90;;;;;;4952822;29;20867;-75
2022/08/25 12:11:57;;;;;;;5.70;5.20;;;11.40;99.90;;;;;;4952560;29;20439;-76
2022/08/25 12:14:27;;;;;;;5.85;5.20;;;11.50;99.90;;;;;;4952572;29;20904;-76
2022/08/25 12:16:59;;;;;;;9.80;5.00;;;11.70;99.90;;;;;;4953044;29;20408;-76
2022/08/25 12:19:34;;;;;;;6.57;4.30;;;11.70;99.90;;;;;;4952529;29;20471;-75
2022/08/25 12:22:01;;;;;;;7.63;4.07;;;11.70;99.90;;;;;;4952706;29;20388;-76
2022/08/25 12:24:54;;;;;;;6.82;3.60;;;11.70;99.90;;;;;;4952142;29;20392;-77
2022/08/25 12:27:30;;;;;;;6.38;3.67;;;11.80;99.90;;;;;;4892367;29;20405;-72
2022/08/25 12:30:19;;;;;;;7.30;3.33;;;11.80;99.90;;;;;;4895266;29;20461;-72
2022/08/25 12:33:07;;;;;;;4.78;3.05;;;11.80;99.90;;;;;;4894891;29;20405;-75
2022/08/25 12:35:52;;;;;;;6.80;3.25;;;11.80;99.90;;;;;;4895381;29;20401;-75
2022/08/25 12:38:45;;;;;;;6.07;3.20;;;11.80;99.90;;;;;;4894214;29;20420;-76
2022/08/25 12:41:17;;;;;;;6.40;3.20;;;11.80;99.90;;;;;;4895348;29;20397;-76
2022/08/25 12:43:47;;;;;;;5.55;2.97;;;11.80;99.90;;;;;;4914275;29;20387;-76
2022/08/25 12:46:34;;;;;;;5.45;3.00;;;11.70;99.90;;;;;;4914043;29;20895;-74
2022/08/25 12:49:22;;;;;;;8.02;3.17;;;11.70;99.90;;;;;;4914216;29;20416;-76
2022/08/25 12:52:12;;;;;;;6.85;3.75;;;11.70;99.90;;;;;;4913502;29;20414;-75
2022/08/25 12:54:47;;;;;;;4.57;3.00;;;11.60;99.90;;;;;;4912868;29;20484;-76
2022/08/25 12:57:23;;;;;;;5.65;3.03;;;11.50;99.90;;;;;;4913432;29;20430;-77
2022/08/25 12:59:56;;;;;;;6.20;3.67;;;11.40;99.90;;;;;;4913295;29;20874;-76
2022/08/25 13:03:00;;;;;;;5.13;3.30;;;11.30;99.90;;;;;;4913580;29;20511;-75
2022/08/25 13:05:58;;;;;;;4.33;2.83;;;11.20;99.90;;;;;;4990120;28;20408;-76
2022/08/25 13:08:54;;;;;;;4.80;2.83;;;11.10;99.90;;;;;;4992295;28;20404;-74
2022/08/25 13:11:45;;;;;;;3.80;2.90;;;11.00;99.90;;;;;;4976887;28;20480;-75
2022/08/25 13:14:52;;;;;;;5.63;2.80;;;10.90;99.90;;;;;;4981603;28;20371;-76
2022/08/25 13:17:33;;;;;;;3.15;2.40;;;10.80;99.90;;;;;;4900217;29;20449;-74
2022/08/25 13:20:24;;;;;;;3.42;2.28;;;10.80;99.90;;;;;;4885981;29;20402;-76
2022/08/25 13:22:56;;;;;;;3.38;2.80;;;10.80;99.90;;;;;;4895796;29;20472;-74
2022/08/25 13:25:29;;;;;;;2.75;2.42;;;10.90;99.90;;;;;;4895385;29;20389;-74
2022/08/25 13:28:00;;;;;;;3.33;2.28;;;10.90;99.90;;;;;;4893567;29;20762;-73
2022/08/25 13:30:35;;;;;;;3.30;2.20;;;11.00;99.90;;;;;;4894982;29;20408;-76